sensor_id;sensor_type;location;lat;lon;timestamp;temperature;humidity
7564;DHT22;3823;53.586;10.040;2023-07-20T04:02:24;15.90;1.00
7564;DHT22;3823;53.586;10.040;2023-07-20T04:04:50;15.80;1.00
7564;DHT22;3823;53.586;10.040;2023-07-20T04:07:16;15.80;1.00
7564;DHT22;3823;53.586;10.040;2023-07-20T04:09:42;15.80;1.00
7564;DHT22;3823;53.586;10.040;2023-07-20T04:12:07;15.90;1.00
7564;DHT22;3823;53.586;10.040;2023-07-20T04:14:33;15.90;1.00
7564;DHT22;3823;53.586;10.040;2023-07-20T04:16:58;15.90;1.00
7564;DHT22;3823;53.586;10.040;2023-07-20T04:19:25;15.90;1.00
7564;DHT22;3823;53.586;10.040;2023-07-20T04:21:51;15.90;1.00
7564;DHT22;3823;53.586;10.040;2023-07-20T04:24:16;15.90;1.00
7564;DHT22;3823;53.586;10.040;2023-07-20T04:26:42;15.90;1.00
7564;DHT22;3823;53.586;10.040;2023-07-20T04:29:08;15.90;1.00
7564;DHT22;3823;53.586;10.040;2023-07-20T04:31:33;15.90;1.00
7564;DHT22;3823;53.586;10.040;2023-07-20T04:33:59;15.90;1.00
7564;DHT22;3823;53.586;10.040;2023-07-20T04:36:25;15.90;1.00
7564;DHT22;3823;53.586;10.040;2023-07-20T04:38:50;15.90;1.00
7564;DHT22;3823;53.586;10.040;2023-07-20T04:41:16;15.90;1.00
7564;DHT22;3823;53.586;10.040;2023-07-20T04:43:42;16.00;1.00
7564;DHT22;3823;53.586;10.040;2023-07-20T04:46:09;16.10;1.00
7564;DHT22;3823;53.586;10.040;2023-07-20T04:48:34;16.10;1.00
7564;DHT22;3823;53.586;10.040;2023-07-20T04:51:00;16.10;1.00
7564;DHT22;3823;53.586;10.040;2023-07-20T04:53:25;16.20;1.00
7564;DHT22;3823;53.586;10.040;2023-07-20T04:55:51;16.30;1.00
7564;DHT22;3823;53.586;10.040;2023-07-20T04:58:18;16.30;1.00
7564;DHT22;3823;53.586;10.040;2023-07-20T05:00:44;16.30;1.00
7564;DHT22;3823;53.586;10.040;2023-07-20T05:03:10;16.30;1.00
7564;DHT22;3823;53.586;10.040;2023-07-20T05:05:35;16.30;1.00
7564;DHT22;3823;53.586;10.040;2023-07-20T05:08:03;16.30;1.00
7564;DHT22;3823;53.586;10.040;2023-07-20T05:10:29;16.20;1.00
7564;DHT22;3823;53.586;10.040;2023-07-20T05:12:54;16.40;1.00
7564;DHT22;3823;53.586;10.040;2023-07-20T05:15:20;16.40;1.00
7564;DHT22;3823;53.586;10.040;2023-07-20T05:17:45;16.40;1.00
7564;DHT22;3823;53.586;10.040;2023-07-20T05:20:12;16.50;1.00
7564;DHT22;3823;53.586;10.040;2023-07-20T05:22:38;16.60;1.00
7564;DHT22;3823;53.586;10.040;2023-07-20T05:25:10;16.60;1.00
7564;DHT22;3823;53.586;10.040;2023-07-20T05:27:37;16.70;1.00
7564;DHT22;3823;53.586;10.040;2023-07-20T05:30:03;16.80;1.00
7564;DHT22;3823;53.586;10.040;2023-07-20T05:32:29;16.80;1.00
7564;DHT22;3823;53.586;10.040;2023-07-20T05:34:55;16.80;1.00
7564;DHT22;3823;53.586;10.040;2023-07-20T05:37:21;16.90;1.00
7564;DHT22;3823;53.586;10.040;2023-07-20T05:39:46;16.90;1.00
7564;DHT22;3823;53.586;10.040;2023-07-20T05:42:12;17.00;1.00
7564;DHT22;3823;53.586;10.040;2023-07-20T05:44:38;17.10;1.00
7564;DHT22;3823;53.586;10.040;2023-07-20T05:47:04;17.20;1.00
7564;DHT22;3823;53.586;10.040;2023-07-20T05:49:29;17.20;1.00
7564;DHT22;3823;53.586;10.040;2023-07-20T05:51:56;17.20;1.00
7564;DHT22;3823;53.586;10.040;2023-07-20T05:54:23;17.30;1.00
7564;DHT22;3823;53.586;10.040;2023-07-20T05:56:49;17.30;1.00
7564;DHT22;3823;53.586;10.040;2023-07-20T05:59:14;17.30;1.00
7564;DHT22;3823;53.586;10.040;2023-07-20T06:01:40;17.40;1.00
7564;DHT22;3823;53.586;10.040;2023-07-20T06:04:05;17.40;1.00
7564;DHT22;3823;53.586;10.040;2023-07-20T06:06:31;17.50;1.00
7564;DHT22;3823;53.586;10.040;2023-07-20T06:08:56;17.60;1.00
7564;DHT22;3823;53.586;10.040;2023-07-20T06:11:22;17.60;1.00
7564;DHT22;3823;53.586;10.040;2023-07-20T06:13:47;17.70;1.00
7564;DHT22;3823;53.586;10.040;2023-07-20T06:16:13;17.90;1.00
7564;DHT22;3823;53.586;10.040;2023-07-20T06:18:39;18.00;1.00
7564;DHT22;3823;53.586;10.040;2023-07-20T06:21:04;18.10;99.90
7564;DHT22;3823;53.586;10.040;2023-07-20T06:23:30;18.10;99.90
7564;DHT22;3823;53.586;10.040;2023-07-20T06:25:57;18.10;99.90
7564;DHT22;3823;53.586;10.040;2023-07-20T06:28:22;18.10;99.90
7564;DHT22;3823;53.586;10.040;2023-07-20T06:30:48;18.00;99.90
7564;DHT22;3823;53.586;10.040;2023-07-20T06:33:13;17.90;99.90
7564;DHT22;3823;53.586;10.040;2023-07-20T06:35:42;17.80;99.90
7564;DHT22;3823;53.586;10.040;2023-07-20T06:38:10;17.90;99.90
7564;DHT22;3823;53.586;10.040;2023-07-20T06:40:36;17.90;99.90
7564;DHT22;3823;53.586;10.040;2023-07-20T06:43:01;18.00;99.90
7564;DHT22;3823;53.586;10.040;2023-07-20T06:45:27;18.20;99.90
7564;DHT22;3823;53.586;10.040;2023-07-20T06:47:53;18.20;99.90
7564;DHT22;3823;53.586;10.040;2023-07-20T06:50:18;18.20;99.90
7564;DHT22;3823;53.586;10.040;2023-07-20T06:52:44;18.30;99.90
7564;DHT22;3823;53.586;10.040;2023-07-20T06:55:10;18.40;99.90
7564;DHT22;3823;53.586;10.040;2023-07-20T06:57:35;18.50;99.90
7564;DHT22;3823;53.586;10.040;2023-07-20T07:00:01;18.50;99.90
7564;DHT22;3823;53.586;10.040;2023-07-20T07:02:27;18.50;74.60
7564;DHT22;3823;53.586;10.040;2023-07-20T07:04:52;18.60;75.30
7564;DHT22;3823;53.586;10.040;2023-07-20T07:07:18;18.60;34.80
7564;DHT22;3823;53.586;10.040;2023-07-20T07:09:43;18.50;10.50
7564;DHT22;3823;53.586;10.040;2023-07-20T07:12:09;18.50;25.70
7564;DHT22;3823;53.586;10.040;2023-07-20T07:14:34;18.40;1.00
7564;DHT22;3823;53.586;10.040;2023-07-20T07:17:00;18.40;1.00
7564;DHT22;3823;53.586;10.040;2023-07-20T07:19:26;18.30;99.90
7564;DHT22;3823;53.586;10.040;2023-07-20T07:21:51;18.40;77.90
7564;DHT22;3823;53.586;10.040;2023-07-20T07:24:20;18.70;1.00
7564;DHT22;3823;53.586;10.040;2023-07-20T07:26:45;18.90;1.00
7564;DHT22;3823;53.586;10.040;2023-07-20T07:29:11;19.20;1.00
7564;DHT22;3823;53.586;10.040;2023-07-20T07:31:39;19.50;1.00
7564;DHT22;3823;53.586;10.040;2023-07-20T07:34:07;19.80;1.00
7564;DHT22;3823;53.586;10.040;2023-07-20T07:36:36;20.00;1.00
7564;DHT22;3823;53.586;10.040;2023-07-20T07:39:07;19.80;1.00
7564;DHT22;3823;53.586;10.040;2023-07-20T07:41:32;19.70;1.00
7564;DHT22;3823;53.586;10.040;2023-07-20T07:43:58;19.50;1.00
7564;DHT22;3823;53.586;10.040;2023-07-20T07:46:23;19.20;1.00
7564;DHT22;3823;53.586;10.040;2023-07-20T07:48:49;18.80;4.20
7564;DHT22;3823;53.586;10.040;2023-07-20T07:51:14;18.50;99.90
7564;DHT22;3823;53.586;10.040;2023-07-20T07:53:40;18.20;99.90
7564;DHT22;3823;53.586;10.040;2023-07-20T07:56:09;18.00;99.90
7564;DHT22;3823;53.586;10.040;2023-07-20T07:58:35;18.10;99.90
7564;DHT22;3823;53.586;10.040;2023-07-20T08:01:00;18.50;99.90
7564;DHT22;3823;53.586;10.040;2023-07-20T08:03:26;19.00;99.90
7564;DHT22;3823;53.586;10.040;2023-07-20T08:05:54;19.40;99.90
7564;DHT22;3823;53.586;10.040;2023-07-20T08:08:20;19.80;99.90
7564;DHT22;3823;53.586;10.040;2023-07-20T08:10:46;20.00;1.00
7564;DHT22;3823;53.586;10.040;2023-07-20T08:13:12;19.80;1.00
7564;DHT22;3823;53.586;10.040;2023-07-20T08:15:38;19.60;1.00
7564;DHT22;3823;53.586;10.040;2023-07-20T08:18:03;19.70;1.00
7564;DHT22;3823;53.586;10.040;2023-07-20T08:20:29;19.70;1.00
7564;DHT22;3823;53.586;10.040;2023-07-20T08:22:55;19.90;1.00
7564;DHT22;3823;53.586;10.040;2023-07-20T08:25:21;20.20;1.00
7564;DHT22;3823;53.586;10.040;2023-07-20T08:27:47;20.50;1.00
7564;DHT22;3823;53.586;10.040;2023-07-20T08:30:13;20.50;1.00
7564;DHT22;3823;53.586;10.040;2023-07-20T08:32:39;20.60;1.00
7564;DHT22;3823;53.586;10.040;2023-07-20T08:35:05;20.70;1.00
7564;DHT22;3823;53.586;10.040;2023-07-20T08:37:31;20.50;1.00
7564;DHT22;3823;53.586;10.040;2023-07-20T08:39:56;20.30;1.00
7564;DHT22;3823;53.586;10.040;2023-07-20T08:42:22;20.40;1.00
7564;DHT22;3823;53.586;10.040;2023-07-20T08:44:49;20.70;1.00
7564;DHT22;3823;53.586;10.040;2023-07-20T08:47:16;21.10;1.00
7564;DHT22;3823;53.586;10.040;2023-07-20T08:49:41;21.30;1.00
7564;DHT22;3823;53.586;10.040;2023-07-20T08:52:08;21.20;1.00
7564;DHT22;3823;53.586;10.040;2023-07-20T08:54:34;20.90;1.00
7564;DHT22;3823;53.586;10.040;2023-07-20T08:57:05;20.40;1.00
7564;DHT22;3823;53.586;10.040;2023-07-20T08:59:32;19.80;1.00
7564;DHT22;3823;53.586;10.040;2023-07-20T09:02:01;19.50;1.00
7564;DHT22;3823;53.586;10.040;2023-07-20T09:04:27;19.30;1.00
7564;DHT22;3823;53.586;10.040;2023-07-20T09:06:53;19.50;1.00
7564;DHT22;3823;53.586;10.040;2023-07-20T09:09:18;19.80;1.00
7564;DHT22;3823;53.586;10.040;2023-07-20T09:11:47;20.10;1.00
7564;DHT22;3823;53.586;10.040;2023-07-20T09:14:14;20.40;1.00
7564;DHT22;3823;53.586;10.040;2023-07-20T09:16:50;20.70;1.00
7564;DHT22;3823;53.586;10.040;2023-07-20T09:19:16;21.00;1.00
7564;DHT22;3823;53.586;10.040;2023-07-20T09:21:46;21.20;1.00
7564;DHT22;3823;53.586;10.040;2023-07-20T09:24:13;21.30;1.00
7564;DHT22;3823;53.586;10.040;2023-07-20T09:26:43;21.20;1.00
7564;DHT22;3823;53.586;10.040;2023-07-20T09:29:10;21.00;1.00
7564;DHT22;3823;53.586;10.040;2023-07-20T09:31:36;20.80;1.00
7564;DHT22;3823;53.586;10.040;2023-07-20T09:34:01;20.40;1.00
7564;DHT22;3823;53.586;10.040;2023-07-20T09:36:28;19.90;1.00
7564;DHT22;3823;53.586;10.040;2023-07-20T09:38:54;19.40;24.30
7564;DHT22;3823;53.586;10.040;2023-07-20T09:41:21;19.10;99.90
7564;DHT22;3823;53.586;10.040;2023-07-20T09:43:47;19.10;99.90
7564;DHT22;3823;53.586;10.040;2023-07-20T09:46:12;19.00;99.90
7564;DHT22;3823;53.586;10.040;2023-07-20T09:48:39;19.20;99.90
7564;DHT22;3823;53.586;10.040;2023-07-20T09:51:05;19.30;99.90
7564;DHT22;3823;53.586;10.040;2023-07-20T09:53:33;19.60;99.90
7564;DHT22;3823;53.586;10.040;2023-07-20T09:55:59;20.10;1.00
7564;DHT22;3823;53.586;10.040;2023-07-20T09:58:28;20.30;1.00
7564;DHT22;3823;53.586;10.040;2023-07-20T10:00:56;20.30;1.00
7564;DHT22;3823;53.586;10.040;2023-07-20T10:03:28;20.50;1.00
7564;DHT22;3823;53.586;10.040;2023-07-20T10:06:04;20.60;1.00
7564;DHT22;3823;53.586;10.040;2023-07-20T10:08:32;20.70;1.00
7564;DHT22;3823;53.586;10.040;2023-07-20T10:11:00;21.10;1.00
7564;DHT22;3823;53.586;10.040;2023-07-20T10:13:29;21.40;1.00
7564;DHT22;3823;53.586;10.040;2023-07-20T10:16:03;21.50;1.00
7564;DHT22;3823;53.586;10.040;2023-07-20T10:18:35;21.70;1.00
7564;DHT22;3823;53.586;10.040;2023-07-20T10:21:03;21.70;1.00
7564;DHT22;3823;53.586;10.040;2023-07-20T10:23:32;21.90;1.00
7564;DHT22;3823;53.586;10.040;2023-07-20T10:25:59;21.90;1.00
7564;DHT22;3823;53.586;10.040;2023-07-20T10:28:26;21.90;1.00
7564;DHT22;3823;53.586;10.040;2023-07-20T10:30:53;22.00;1.00
7564;DHT22;3823;53.586;10.040;2023-07-20T10:33:19;22.10;1.00
7564;DHT22;3823;53.586;10.040;2023-07-20T10:35:56;22.00;1.00
7564;DHT22;3823;53.586;10.040;2023-07-20T10:38:42;21.70;1.00
7564;DHT22;3823;53.586;10.040;2023-07-20T10:41:22;21.30;1.00
7564;DHT22;3823;53.586;10.040;2023-07-20T10:43:50;21.00;1.00
7564;DHT22;3823;53.586;10.040;2023-07-20T10:49:07;21.50;1.00
7564;DHT22;3823;53.586;10.040;2023-07-20T10:56:46;22.50;1.00
7564;DHT22;3823;53.586;10.040;2023-07-20T11:01:57;21.70;1.00
7564;DHT22;3823;53.586;10.040;2023-07-20T11:04:42;21.20;1.00
7564;DHT22;3823;53.586;10.040;2023-07-20T11:07:08;20.80;1.00
7564;DHT22;3823;53.586;10.040;2023-07-20T11:09:38;20.50;1.00
7564;DHT22;3823;53.586;10.040;2023-07-20T11:12:17;20.60;8.20
7564;DHT22;3823;53.586;10.040;2023-07-20T11:14:56;21.00;1.00
7564;DHT22;3823;53.586;10.040;2023-07-20T11:17:29;21.00;1.00
7564;DHT22;3823;53.586;10.040;2023-07-20T11:19:56;20.60;1.00
7564;DHT22;3823;53.586;10.040;2023-07-20T11:22:22;20.20;1.00
7564;DHT22;3823;53.586;10.040;2023-07-20T11:24:48;19.90;1.00
7564;DHT22;3823;53.586;10.040;2023-07-20T11:27:14;19.90;1.00
7564;DHT22;3823;53.586;10.040;2023-07-20T11:29:40;20.00;1.00
7564;DHT22;3823;53.586;10.040;2023-07-20T11:32:06;20.30;1.00
7564;DHT22;3823;53.586;10.040;2023-07-20T11:34:33;20.70;1.00
7564;DHT22;3823;53.586;10.040;2023-07-20T11:36:59;21.20;1.00
7564;DHT22;3823;53.586;10.040;2023-07-20T11:39:25;21.40;1.00
7564;DHT22;3823;53.586;10.040;2023-07-20T11:41:53;21.50;1.00
7564;DHT22;3823;53.586;10.040;2023-07-20T11:44:25;21.30;1.00
7564;DHT22;3823;53.586;10.040;2023-07-20T11:47:08;21.30;1.00
7564;DHT22;3823;53.586;10.040;2023-07-20T11:49:38;21.40;1.00
7564;DHT22;3823;53.586;10.040;2023-07-20T11:52:11;21.50;1.00
7564;DHT22;3823;53.586;10.040;2023-07-20T11:54:39;21.50;1.00
7564;DHT22;3823;53.586;10.040;2023-07-20T11:57:05;21.50;1.00
7564;DHT22;3823;53.586;10.040;2023-07-20T11:59:32;21.60;1.00
7564;DHT22;3823;53.586;10.040;2023-07-20T12:02:02;21.70;1.00
7564;DHT22;3823;53.586;10.040;2023-07-20T12:04:31;21.90;1.00
7564;DHT22;3823;53.586;10.040;2023-07-20T12:06:58;22.10;1.00
7564;DHT22;3823;53.586;10.040;2023-07-20T12:09:24;21.90;1.00
7564;DHT22;3823;53.586;10.040;2023-07-20T12:11:50;21.90;1.00
7564;DHT22;3823;53.586;10.040;2023-07-20T12:14:16;21.90;1.00
7564;DHT22;3823;53.586;10.040;2023-07-20T12:16:42;22.10;1.00
7564;DHT22;3823;53.586;10.040;2023-07-20T12:19:10;22.20;1.00
7564;DHT22;3823;53.586;10.040;2023-07-20T12:21:37;22.20;1.00
7564;DHT22;3823;53.586;10.040;2023-07-20T12:24:04;22.10;1.00
7564;DHT22;3823;53.586;10.040;2023-07-20T12:26:31;21.70;1.00
7564;DHT22;3823;53.586;10.040;2023-07-20T12:28:57;21.50;1.00
7564;DHT22;3823;53.586;10.040;2023-07-20T12:31:23;21.30;1.00
7564;DHT22;3823;53.586;10.040;2023-07-20T12:33:53;21.30;1.00
7564;DHT22;3823;53.586;10.040;2023-07-20T12:36:21;21.30;1.00
7564;DHT22;3823;53.586;10.040;2023-07-20T12:38:46;21.20;1.00
7564;DHT22;3823;53.586;10.040;2023-07-20T12:41:13;21.20;1.00
7564;DHT22;3823;53.586;10.040;2023-07-20T12:43:42;21.20;1.00
7564;DHT22;3823;53.586;10.040;2023-07-20T12:46:09;21.30;1.00
7564;DHT22;3823;53.586;10.040;2023-07-20T12:48:36;21.40;1.00
7564;DHT22;3823;53.586;10.040;2023-07-20T12:51:06;21.60;1.00
7564;DHT22;3823;53.586;10.040;2023-07-20T12:53:32;21.60;1.00
7564;DHT22;3823;53.586;10.040;2023-07-20T12:55:59;21.50;1.00
7564;DHT22;3823;53.586;10.040;2023-07-20T12:58:25;21.40;1.00
7564;DHT22;3823;53.586;10.040;2023-07-20T13:00:50;21.40;1.00
7564;DHT22;3823;53.586;10.040;2023-07-20T13:03:16;21.40;1.00
7564;DHT22;3823;53.586;10.040;2023-07-20T13:05:44;21.60;1.00
7564;DHT22;3823;53.586;10.040;2023-07-20T13:08:09;21.60;1.00
7564;DHT22;3823;53.586;10.040;2023-07-20T13:10:35;21.60;1.00
7564;DHT22;3823;53.586;10.040;2023-07-20T13:13:01;21.60;1.00
7564;DHT22;3823;53.586;10.040;2023-07-20T13:15:31;21.80;1.00
7564;DHT22;3823;53.586;10.040;2023-07-20T13:18:00;22.10;1.00
7564;DHT22;3823;53.586;10.040;2023-07-20T13:20:26;22.20;1.00
7564;DHT22;3823;53.586;10.040;2023-07-20T13:22:53;22.30;1.00
7564;DHT22;3823;53.586;10.040;2023-07-20T13:25:19;22.30;1.00
7564;DHT22;3823;53.586;10.040;2023-07-20T13:27:44;22.40;1.00
7564;DHT22;3823;53.586;10.040;2023-07-20T13:30:10;22.30;1.00
7564;DHT22;3823;53.586;10.040;2023-07-20T13:32:42;22.30;1.00
7564;DHT22;3823;53.586;10.040;2023-07-20T13:35:08;22.40;1.00
7564;DHT22;3823;53.586;10.040;2023-07-20T13:37:33;22.50;1.00
7564;DHT22;3823;53.586;10.040;2023-07-20T13:39:59;22.60;1.00
7564;DHT22;3823;53.586;10.040;2023-07-20T13:42:25;22.70;1.00
7564;DHT22;3823;53.586;10.040;2023-07-20T13:44:51;22.80;1.00
7564;DHT22;3823;53.586;10.040;2023-07-20T13:47:16;22.90;1.00
7564;DHT22;3823;53.586;10.040;2023-07-20T13:49:43;22.90;1.00
7564;DHT22;3823;53.586;10.040;2023-07-20T13:52:09;22.90;1.00
7564;DHT22;3823;53.586;10.040;2023-07-20T13:54:34;23.00;1.00
7564;DHT22;3823;53.586;10.040;2023-07-20T13:57:00;22.90;1.00
7564;DHT22;3823;53.586;10.040;2023-07-20T13:59:26;23.00;1.00
7564;DHT22;3823;53.586;10.040;2023-07-20T14:01:51;23.00;1.00
7564;DHT22;3823;53.586;10.040;2023-07-20T14:04:17;23.00;1.00
7564;DHT22;3823;53.586;10.040;2023-07-20T14:06:43;23.00;1.00
7564;DHT22;3823;53.586;10.040;2023-07-20T14:09:09;22.90;1.00
7564;DHT22;3823;53.586;10.040;2023-07-20T14:11:34;22.70;1.00
7564;DHT22;3823;53.586;10.040;2023-07-20T14:14:00;22.60;1.00
7564;DHT22;3823;53.586;10.040;2023-07-20T14:16:26;22.60;1.00
7564;DHT22;3823;53.586;10.040;2023-07-20T14:18:52;22.40;1.00
7564;DHT22;3823;53.586;10.040;2023-07-20T14:21:20;22.20;1.00
7564;DHT22;3823;53.586;10.040;2023-07-20T14:23:46;22.00;1.00
7564;DHT22;3823;53.586;10.040;2023-07-20T14:26:13;21.90;1.00
7564;DHT22;3823;53.586;10.040;2023-07-20T14:28:39;21.80;1.00
7564;DHT22;3823;53.586;10.040;2023-07-20T14:31:04;21.80;1.00
7564;DHT22;3823;53.586;10.040;2023-07-20T14:33:31;21.80;1.00
7564;DHT22;3823;53.586;10.040;2023-07-20T14:35:57;22.10;1.00
7564;DHT22;3823;53.586;10.040;2023-07-20T14:38:22;22.20;1.00
7564;DHT22;3823;53.586;10.040;2023-07-20T14:40:48;22.40;1.00
7564;DHT22;3823;53.586;10.040;2023-07-20T14:43:13;22.40;1.00
7564;DHT22;3823;53.586;10.040;2023-07-20T14:45:41;22.50;1.00
7564;DHT22;3823;53.586;10.040;2023-07-20T14:48:07;22.50;1.00
7564;DHT22;3823;53.586;10.040;2023-07-20T14:50:34;22.60;1.00
7564;DHT22;3823;53.586;10.040;2023-07-20T14:52:59;22.50;1.00
7564;DHT22;3823;53.586;10.040;2023-07-20T14:55:25;22.30;1.00
7564;DHT22;3823;53.586;10.040;2023-07-20T14:57:51;22.10;1.00
7564;DHT22;3823;53.586;10.040;2023-07-20T15:00:17;21.90;1.00
7564;DHT22;3823;53.586;10.040;2023-07-20T15:02:42;21.90;1.00
7564;DHT22;3823;53.586;10.040;2023-07-20T15:05:10;21.80;1.00
7564;DHT22;3823;53.586;10.040;2023-07-20T15:07:36;21.80;1.00
7564;DHT22;3823;53.586;10.040;2023-07-20T15:10:03;21.80;1.00
7564;DHT22;3823;53.586;10.040;2023-07-20T15:12:29;21.80;1.00
7564;DHT22;3823;53.586;10.040;2023-07-20T15:15:05;21.60;1.00
7564;DHT22;3823;53.586;10.040;2023-07-20T15:17:32;21.60;1.00
7564;DHT22;3823;53.586;10.040;2023-07-20T15:19:57;21.50;1.00
7564;DHT22;3823;53.586;10.040;2023-07-20T15:22:25;21.60;1.00
7564;DHT22;3823;53.586;10.040;2023-07-20T15:24:50;21.70;1.00
7564;DHT22;3823;53.586;10.040;2023-07-20T15:27:16;21.80;1.00
7564;DHT22;3823;53.586;10.040;2023-07-20T15:29:42;21.70;1.00
7564;DHT22;3823;53.586;10.040;2023-07-20T15:32:07;21.70;1.00
7564;DHT22;3823;53.586;10.040;2023-07-20T15:34:34;21.70;1.00
7564;DHT22;3823;53.586;10.040;2023-07-20T15:37:00;21.60;1.00
7564;DHT22;3823;53.586;10.040;2023-07-20T15:39:25;21.70;1.00
7564;DHT22;3823;53.586;10.040;2023-07-20T15:41:52;21.70;1.00
7564;DHT22;3823;53.586;10.040;2023-07-20T15:44:18;21.80;1.00
7564;DHT22;3823;53.586;10.040;2023-07-20T15:46:45;21.80;1.00
7564;DHT22;3823;53.586;10.040;2023-07-20T15:49:11;21.70;1.00
7564;DHT22;3823;53.586;10.040;2023-07-20T15:51:37;21.70;1.00
7564;DHT22;3823;53.586;10.040;2023-07-20T15:54:04;21.80;1.00
7564;DHT22;3823;53.586;10.040;2023-07-20T15:56:34;21.70;1.00
7564;DHT22;3823;53.586;10.040;2023-07-20T15:58:59;21.70;1.00
7564;DHT22;3823;53.586;10.040;2023-07-20T16:01:25;21.60;1.00
7564;DHT22;3823;53.586;10.040;2023-07-20T16:03:51;21.60;1.00
7564;DHT22;3823;53.586;10.040;2023-07-20T16:06:16;21.60;1.00
7564;DHT22;3823;53.586;10.040;2023-07-20T16:08:42;21.50;1.00
7564;DHT22;3823;53.586;10.040;2023-07-20T16:11:08;21.50;1.00
7564;DHT22;3823;53.586;10.040;2023-07-20T16:13:34;21.50;1.00
7564;DHT22;3823;53.586;10.040;2023-07-20T16:18:28;21.50;1.00
7564;DHT22;3823;53.586;10.040;2023-07-20T16:20:55;21.50;1.00
7564;DHT22;3823;53.586;10.040;2023-07-20T16:23:21;21.40;1.00
7564;DHT22;3823;53.586;10.040;2023-07-20T16:25:47;21.30;1.00
7564;DHT22;3823;53.586;10.040;2023-07-20T16:28:13;21.20;1.00
7564;DHT22;3823;53.586;10.040;2023-07-20T16:30:39;21.20;1.00
7564;DHT22;3823;53.586;10.040;2023-07-20T16:33:05;21.20;1.00
7564;DHT22;3823;53.586;10.040;2023-07-20T16:35:36;21.20;1.00
7564;DHT22;3823;53.586;10.040;2023-07-20T16:38:02;21.20;1.00
7564;DHT22;3823;53.586;10.040;2023-07-20T16:40:27;21.30;1.00
7564;DHT22;3823;53.586;10.040;2023-07-20T16:42:53;21.30;1.00
7564;DHT22;3823;53.586;10.040;2023-07-20T16:45:18;21.40;1.00
7564;DHT22;3823;53.586;10.040;2023-07-20T16:47:44;21.40;1.00
7564;DHT22;3823;53.586;10.040;2023-07-20T16:50:09;21.20;1.00
7564;DHT22;3823;53.586;10.040;2023-07-20T16:52:35;21.10;1.00
7564;DHT22;3823;53.586;10.040;2023-07-20T16:55:01;21.10;1.00
7564;DHT22;3823;53.586;10.040;2023-07-20T16:57:26;21.10;1.00
7564;DHT22;3823;53.586;10.040;2023-07-20T16:59:52;21.00;1.00
7564;DHT22;3823;53.586;10.040;2023-07-20T17:02:19;21.00;1.00
7564;DHT22;3823;53.586;10.040;2023-07-20T17:04:48;21.00;1.00
7564;DHT22;3823;53.586;10.040;2023-07-20T17:07:13;21.00;1.00
7564;DHT22;3823;53.586;10.040;2023-07-20T17:09:40;21.00;1.00
7564;DHT22;3823;53.586;10.040;2023-07-20T17:12:06;21.00;1.00
7564;DHT22;3823;53.586;10.040;2023-07-20T17:14:33;21.10;1.00
7564;DHT22;3823;53.586;10.040;2023-07-20T17:16:59;21.00;1.00
7564;DHT22;3823;53.586;10.040;2023-07-20T17:19:25;21.00;1.00
7564;DHT22;3823;53.586;10.040;2023-07-20T17:21:50;21.00;1.00
7564;DHT22;3823;53.586;10.040;2023-07-20T17:24:16;21.10;1.00
7564;DHT22;3823;53.586;10.040;2023-07-20T17:26:42;21.00;1.00
7564;DHT22;3823;53.586;10.040;2023-07-20T17:29:07;20.90;1.00
7564;DHT22;3823;53.586;10.040;2023-07-20T17:31:33;20.70;1.00
7564;DHT22;3823;53.586;10.040;2023-07-20T17:33:59;20.80;1.00
7564;DHT22;3823;53.586;10.040;2023-07-20T17:36:25;20.80;1.00
7564;DHT22;3823;53.586;10.040;2023-07-20T17:38:51;20.80;1.00
7564;DHT22;3823;53.586;10.040;2023-07-20T17:41:16;20.80;1.00
7564;DHT22;3823;53.586;10.040;2023-07-20T17:43:42;20.80;1.00
7564;DHT22;3823;53.586;10.040;2023-07-20T17:46:07;20.70;1.00
7564;DHT22;3823;53.586;10.040;2023-07-20T17:48:33;20.70;1.00
7564;DHT22;3823;53.586;10.040;2023-07-20T17:50:59;20.70;1.00
7564;DHT22;3823;53.586;10.040;2023-07-20T17:53:24;20.70;1.00
7564;DHT22;3823;53.586;10.040;2023-07-20T17:55:53;20.70;1.00
7564;DHT22;3823;53.586;10.040;2023-07-20T17:58:18;20.60;1.00
7564;DHT22;3823;53.586;10.040;2023-07-20T18:00:44;20.70;1.00
7564;DHT22;3823;53.586;10.040;2023-07-20T18:03:09;20.60;1.00
7564;DHT22;3823;53.586;10.040;2023-07-20T18:05:35;20.50;1.00
7564;DHT22;3823;53.586;10.040;2023-07-20T18:08:01;20.40;1.00
7564;DHT22;3823;53.586;10.040;2023-07-20T18:10:26;20.30;1.00
7564;DHT22;3823;53.586;10.040;2023-07-20T18:12:52;20.20;1.00
7564;DHT22;3823;53.586;10.040;2023-07-20T18:15:18;20.20;1.00
7564;DHT22;3823;53.586;10.040;2023-07-20T18:17:43;20.10;1.00
7564;DHT22;3823;53.586;10.040;2023-07-20T18:20:09;20.00;1.00
7564;DHT22;3823;53.586;10.040;2023-07-20T18:22:35;20.00;1.00
7564;DHT22;3823;53.586;10.040;2023-07-20T18:25:02;20.00;1.00
7564;DHT22;3823;53.586;10.040;2023-07-20T18:27:28;20.00;1.00
7564;DHT22;3823;53.586;10.040;2023-07-20T18:29:54;20.00;1.00
7564;DHT22;3823;53.586;10.040;2023-07-20T18:32:19;20.00;1.00
7564;DHT22;3823;53.586;10.040;2023-07-20T18:34:45;20.00;1.00
7564;DHT22;3823;53.586;10.040;2023-07-20T18:37:11;20.00;1.00
7564;DHT22;3823;53.586;10.040;2023-07-20T18:39:37;19.90;1.00
7564;DHT22;3823;53.586;10.040;2023-07-20T18:42:03;19.80;1.00
7564;DHT22;3823;53.586;10.040;2023-07-20T18:44:29;19.80;1.00
7564;DHT22;3823;53.586;10.040;2023-07-20T18:46:55;19.80;1.00
7564;DHT22;3823;53.586;10.040;2023-07-20T18:49:23;19.80;1.00
7564;DHT22;3823;53.586;10.040;2023-07-20T18:51:52;19.70;1.00
7564;DHT22;3823;53.586;10.040;2023-07-20T18:54:17;19.70;1.00
7564;DHT22;3823;53.586;10.040;2023-07-20T18:56:43;19.60;1.00
7564;DHT22;3823;53.586;10.040;2023-07-20T18:59:09;19.60;1.00
7564;DHT22;3823;53.586;10.040;2023-07-20T19:01:35;19.50;1.00
7564;DHT22;3823;53.586;10.040;2023-07-20T19:04:00;19.50;1.00
7564;DHT22;3823;53.586;10.040;2023-07-20T19:06:26;19.60;1.00
7564;DHT22;3823;53.586;10.040;2023-07-20T19:08:52;19.60;1.00
7564;DHT22;3823;53.586;10.040;2023-07-20T19:11:18;19.50;1.00
7564;DHT22;3823;53.586;10.040;2023-07-20T19:13:43;19.50;1.00
7564;DHT22;3823;53.586;10.040;2023-07-20T19:16:09;19.50;1.00
7564;DHT22;3823;53.586;10.040;2023-07-20T19:18:35;19.40;1.00
7564;DHT22;3823;53.586;10.040;2023-07-20T19:21:05;19.40;1.00
7564;DHT22;3823;53.586;10.040;2023-07-20T19:23:31;19.30;1.00
7564;DHT22;3823;53.586;10.040;2023-07-20T19:26:08;19.30;1.00
7564;DHT22;3823;53.586;10.040;2023-07-20T19:28:35;19.20;1.00
7564;DHT22;3823;53.586;10.040;2023-07-20T19:31:01;19.20;1.00
7564;DHT22;3823;53.586;10.040;2023-07-20T19:33:27;19.20;1.00
7564;DHT22;3823;53.586;10.040;2023-07-20T19:35:53;19.30;1.00
7564;DHT22;3823;53.586;10.040;2023-07-20T19:38:25;19.20;1.00
7564;DHT22;3823;53.586;10.040;2023-07-20T19:40:51;19.20;1.00
7564;DHT22;3823;53.586;10.040;2023-07-20T19:43:17;19.20;1.00
7564;DHT22;3823;53.586;10.040;2023-07-20T19:45:43;19.20;1.00
7564;DHT22;3823;53.586;10.040;2023-07-20T19:48:09;19.10;1.00
7564;DHT22;3823;53.586;10.040;2023-07-20T19:50:34;19.10;1.00
7564;DHT22;3823;53.586;10.040;2023-07-20T19:53:01;19.10;1.00
7564;DHT22;3823;53.586;10.040;2023-07-20T19:55:26;19.20;1.00
7564;DHT22;3823;53.586;10.040;2023-07-20T19:57:52;19.20;1.00
7564;DHT22;3823;53.586;10.040;2023-07-20T20:00:19;19.20;1.00
7564;DHT22;3823;53.586;10.040;2023-07-20T20:02:46;19.10;1.00
7564;DHT22;3823;53.586;10.040;2023-07-20T20:05:12;19.20;1.00
7564;DHT22;3823;53.586;10.040;2023-07-20T20:07:37;19.10;1.00
7564;DHT22;3823;53.586;10.040;2023-07-20T20:10:04;19.10;1.00